createdAt,value
2023-02-26T00:00:15.303Z,15.40
2023-02-26T00:03:21.554Z,14.30
2023-02-26T00:06:29.740Z,13.80
2023-02-26T00:09:36.300Z,14.00
2023-02-26T00:12:43.864Z,13.70
2023-02-26T00:15:52.585Z,13.70
2023-02-26T00:19:00.405Z,14.90
2023-02-26T00:22:08.020Z,12.80
2023-02-26T00:25:14.834Z,15.20
2023-02-26T00:28:22.191Z,16.20
2023-02-26T00:31:29.241Z,12.70
2023-02-26T00:34:36.470Z,13.10
2023-02-26T00:38:03.170Z,13.50
2023-02-26T00:41:11.242Z,13.60
2023-02-26T00:44:18.705Z,14.60
2023-02-26T00:47:32.595Z,13.60
2023-02-26T00:50:44.585Z,13.60
2023-02-26T00:54:00.368Z,14.50
2023-02-26T00:57:06.900Z,11.60
2023-02-26T01:00:16.634Z,12.70
2023-02-26T01:03:23.809Z,13.60
2023-02-26T01:06:33.979Z,13.20
2023-02-26T01:09:41.318Z,13.10
2023-02-26T01:12:48.825Z,14.20
2023-02-26T01:16:04.436Z,14.30
2023-02-26T01:19:19.623Z,13.50
2023-02-26T01:22:31.083Z,13.60
2023-02-26T01:25:43.105Z,13.10
2023-02-26T01:28:50.542Z,14.30
2023-02-26T01:32:03.628Z,13.20
2023-02-26T01:35:18.035Z,13.40
2023-02-26T01:38:32.312Z,14.30
2023-02-26T01:41:44.502Z,13.60
2023-02-26T01:45:01.044Z,12.30
2023-02-26T01:48:13.071Z,13.60
2023-02-26T01:51:19.724Z,12.50
2023-02-26T01:54:27.246Z,13.60
2023-02-26T01:57:33.513Z,13.90
2023-02-26T02:00:39.854Z,13.30
2023-02-26T02:06:51.465Z,14.30
2023-02-26T02:09:57.597Z,14.70
2023-02-26T02:13:11.478Z,15.10
2023-02-26T02:16:28.977Z,14.30
2023-02-26T02:19:59.227Z,13.80
2023-02-26T02:23:12.601Z,15.60
2023-02-26T02:26:51.798Z,14.90
2023-02-26T02:30:38.409Z,14.00
2023-02-26T02:33:51.242Z,15.50
2023-02-26T02:37:01.070Z,16.50
2023-02-26T02:40:14.175Z,15.50
2023-02-26T02:43:22.525Z,15.30
2023-02-26T02:46:31.639Z,14.00
2023-02-26T02:49:44.988Z,14.70
2023-02-26T02:52:55.803Z,14.60
2023-02-26T02:56:08.885Z,14.90
2023-02-26T02:59:22.131Z,13.80
2023-02-26T03:02:35.309Z,14.30
2023-02-26T03:05:41.634Z,13.70
2023-02-26T03:11:54.144Z,13.10
2023-02-26T03:15:00.950Z,13.20
2023-02-26T03:18:17.324Z,12.50
2023-02-26T03:21:33.140Z,12.50
2023-02-26T03:24:47.326Z,12.40
2023-02-26T03:28:00.584Z,11.30
2023-02-26T03:31:13.547Z,11.90
2023-02-26T03:34:27.497Z,13.70
2023-02-26T03:37:39.978Z,13.90
2023-02-26T03:40:51.173Z,14.70
2023-02-26T03:44:01.516Z,12.40
2023-02-26T03:47:13.121Z,12.50
2023-02-26T03:50:26.670Z,14.70
2023-02-26T03:53:40.950Z,14.10
2023-02-26T03:56:49.227Z,13.80
2023-02-26T03:59:56.008Z,13.40
2023-02-26T04:03:09.261Z,15.00
2023-02-26T04:06:16.811Z,14.70
2023-02-26T04:09:23.734Z,16.30
2023-02-26T04:12:30.815Z,13.80
2023-02-26T04:15:37.482Z,13.90
2023-02-26T04:18:44.250Z,13.90
2023-02-26T04:21:50.837Z,15.20
2023-02-26T04:24:57.061Z,15.70
2023-02-26T04:28:03.312Z,15.60
2023-02-26T04:31:10.410Z,17.30
2023-02-26T04:34:16.817Z,18.10
2023-02-26T04:40:27.737Z,13.40
2023-02-26T04:43:34.415Z,14.90
2023-02-26T04:46:40.627Z,13.70
2023-02-26T04:49:46.738Z,11.50
2023-02-26T04:52:53.010Z,11.30
2023-02-26T04:59:03.734Z,11.00
2023-02-26T05:02:10.042Z,13.20
2023-02-26T05:08:20.613Z,11.70
2023-02-26T05:11:26.867Z,11.40
2023-02-26T05:17:38.529Z,10.70
2023-02-26T05:20:44.702Z,8.30
2023-02-26T05:23:51.170Z,7.90
2023-02-26T05:26:57.436Z,9.60
2023-02-26T05:30:03.882Z,8.80
2023-02-26T05:33:10.139Z,8.60
2023-02-26T05:36:16.421Z,9.30
2023-02-26T05:42:27.164Z,10.70
2023-02-26T05:45:33.410Z,12.20
2023-02-26T05:48:39.650Z,10.40
2023-02-26T05:51:45.916Z,11.30
2023-02-26T05:57:56.667Z,10.60
2023-02-26T06:01:03.140Z,10.10
2023-02-26T06:04:09.637Z,9.40
2023-02-26T06:07:16.116Z,9.20
2023-02-26T06:10:22.607Z,9.60
2023-02-26T06:13:28.860Z,9.40
2023-02-26T06:16:35.978Z,7.60
2023-02-26T06:19:42.293Z,8.70
2023-02-26T06:25:53.452Z,8.90
2023-02-26T06:28:59.716Z,9.50
2023-02-26T06:32:06.268Z,9.90
2023-02-26T06:35:13.441Z,11.60
2023-02-26T06:38:20.138Z,9.90
2023-02-26T06:41:26.501Z,9.60
2023-02-26T06:47:37.235Z,11.50
2023-02-26T06:50:43.420Z,13.00
2023-02-26T06:53:49.582Z,10.80
2023-02-26T06:56:57.810Z,11.50
2023-02-26T07:00:05.560Z,10.00
2023-02-26T07:03:14.070Z,10.70
2023-02-26T07:06:38.719Z,10.60
2023-02-26T07:09:46.114Z,10.40
2023-02-26T07:12:52.704Z,9.70
2023-02-26T07:15:58.972Z,10.70
2023-02-26T07:19:05.222Z,10.70
2023-02-26T07:25:16.584Z,8.20
2023-02-26T07:28:23.421Z,7.70
2023-02-26T07:31:29.725Z,8.50
2023-02-26T07:37:40.564Z,9.60
2023-02-26T07:43:51.488Z,9.60
2023-02-26T07:50:02.322Z,9.70
2023-02-26T07:56:13.233Z,10.70
2023-02-26T07:59:19.541Z,10.20
2023-02-26T08:05:31.105Z,10.50
2023-02-26T08:08:37.476Z,13.30
2023-02-26T08:17:56.900Z,10.50
2023-02-26T08:21:03.105Z,11.20
2023-02-26T08:24:09.793Z,9.70
2023-02-26T08:27:16.099Z,10.40
2023-02-26T08:30:22.715Z,10.50
2023-02-26T08:33:29.111Z,12.70
2023-02-26T08:39:40.871Z,11.20
2023-02-26T08:42:47.220Z,10.70
2023-02-26T08:52:04.161Z,10.70
2023-02-26T08:55:12.015Z,12.40
2023-02-26T08:58:18.397Z,10.60
2023-02-26T09:04:31.180Z,9.30
2023-02-26T09:07:37.690Z,9.90
2023-02-26T09:10:44.084Z,12.50
2023-02-26T09:13:50.367Z,11.40
2023-02-26T09:16:56.658Z,9.50
2023-02-26T09:23:07.450Z,13.40
2023-02-26T09:29:18.231Z,12.90
2023-02-26T09:32:26.424Z,13.70
2023-02-26T09:35:32.703Z,14.50
2023-02-26T09:38:39.012Z,13.10
2023-02-26T09:44:54.199Z,20.30
2023-02-26T09:48:03.109Z,14.60
2023-02-26T09:51:14.016Z,15.40
2023-02-26T09:54:24.339Z,16.60
2023-02-26T09:57:34.040Z,13.20
2023-02-26T10:00:48.890Z,15.30
2023-02-26T10:04:04.731Z,10.70
2023-02-26T10:07:22.262Z,10.30
2023-02-26T10:10:36.686Z,9.00
2023-02-26T10:13:57.286Z,11.50
2023-02-26T10:17:08.849Z,10.10
2023-02-26T10:20:21.411Z,9.80
2023-02-26T10:23:37.748Z,9.50
2023-02-26T10:26:48.970Z,9.30
2023-02-26T10:30:01.801Z,9.30
2023-02-26T10:33:20.170Z,11.30
2023-02-26T10:36:30.868Z,11.20
2023-02-26T10:39:45.743Z,11.30
2023-02-26T10:42:55.366Z,8.30
2023-02-26T10:46:11.467Z,9.60
2023-02-26T10:52:39.046Z,9.50
2023-02-26T10:55:48.383Z,9.80
2023-02-26T10:58:55.483Z,10.00
2023-02-26T11:02:02.332Z,31.50
2023-02-26T11:05:16.781Z,33.20
2023-02-26T11:08:27.715Z,24.90
2023-02-26T11:11:47.332Z,23.40
2023-02-26T11:14:54.105Z,53.50
2023-02-26T11:18:02.741Z,24.20
2023-02-26T11:21:10.280Z,33.70
2023-02-26T11:24:20.947Z,25.40
2023-02-26T11:27:31.933Z,17.20
2023-02-26T11:30:40.085Z,27.40
2023-02-26T11:33:50.739Z,15.80
2023-02-26T11:37:00.180Z,19.90
2023-02-26T11:40:16.064Z,21.60
2023-02-26T11:43:24.539Z,13.50
2023-02-26T11:46:31.192Z,10.30
2023-02-26T11:49:42.862Z,12.50
2023-02-26T11:52:55.798Z,10.50
2023-02-26T11:56:05.119Z,10.10
2023-02-26T11:59:21.019Z,13.00
2023-02-26T12:02:32.712Z,10.10
2023-02-26T12:05:39.743Z,9.80
2023-02-26T12:08:46.039Z,10.70
2023-02-26T12:15:21.888Z,12.60
2023-02-26T12:18:38.087Z,11.40
2023-02-26T12:25:17.752Z,21.50
2023-02-26T12:29:07.968Z,13.60
2023-02-26T12:32:26.941Z,9.10
2023-02-26T12:35:56.171Z,8.00
2023-02-26T12:39:16.275Z,11.20
2023-02-26T12:42:34.183Z,10.30
2023-02-26T12:45:54.216Z,9.30
2023-02-26T12:49:17.408Z,13.60
2023-02-26T12:52:42.108Z,9.70
2023-02-26T12:55:58.588Z,11.20
2023-02-26T12:59:18.113Z,14.80
2023-02-26T13:02:57.924Z,10.20
2023-02-26T13:06:27.291Z,13.80
2023-02-26T13:09:42.547Z,13.90
2023-02-26T13:13:12.473Z,12.10
2023-02-26T13:16:38.640Z,12.90
2023-02-26T13:19:49.363Z,9.10
2023-02-26T13:23:01.062Z,12.00
2023-02-26T13:26:11.021Z,12.60
2023-02-26T13:29:22.417Z,11.60
2023-02-26T13:32:30.204Z,13.70
2023-02-26T13:35:38.788Z,20.00
2023-02-26T13:39:11.422Z,17.50
2023-02-26T13:42:28.882Z,10.90
2023-02-26T13:45:47.701Z,9.30
2023-02-26T13:49:00.659Z,10.00
2023-02-26T13:52:06.990Z,10.60
2023-02-26T13:58:44.203Z,9.70
2023-02-26T14:01:55.302Z,11.70
2023-02-26T14:05:02.559Z,12.80
2023-02-26T14:08:27.658Z,12.50
2023-02-26T14:12:01.057Z,11.70
2023-02-26T14:15:41.672Z,13.60
2023-02-26T14:18:54.850Z,10.30
2023-02-26T14:22:15.983Z,12.10
2023-02-26T14:25:33.151Z,11.90
2023-02-26T14:28:47.338Z,11.80
2023-02-26T14:32:16.558Z,11.00
2023-02-26T14:35:26.691Z,10.20
2023-02-26T14:38:37.368Z,10.10
2023-02-26T14:41:44.638Z,10.90
2023-02-26T14:44:53.942Z,10.60
2023-02-26T14:48:02.658Z,10.70
2023-02-26T14:51:21.896Z,10.30
2023-02-26T14:54:50.187Z,10.30
2023-02-26T14:58:06.256Z,10.70
2023-02-26T15:01:22.079Z,43.80
2023-02-26T15:04:51.141Z,15.20
2023-02-26T15:08:14.428Z,10.40
2023-02-26T15:11:35.553Z,13.70
2023-02-26T15:15:11.310Z,16.40
2023-02-26T15:21:40.390Z,21.30
2023-02-26T15:24:47.434Z,13.80
2023-02-26T15:27:54.240Z,10.00
2023-02-26T15:31:02.306Z,11.40
2023-02-26T15:34:12.698Z,10.70
2023-02-26T15:37:28.344Z,13.80
2023-02-26T15:40:37.427Z,12.30
2023-02-26T15:43:47.812Z,12.40
2023-02-26T15:46:59.429Z,11.30
2023-02-26T15:50:06.805Z,12.00
2023-02-26T15:53:19.904Z,12.10
2023-02-26T15:56:29.639Z,12.90
2023-02-26T15:59:41.825Z,12.80
2023-02-26T16:02:50.621Z,13.60
2023-02-26T16:05:59.078Z,13.20
2023-02-26T16:09:07.689Z,12.80
2023-02-26T16:12:17.805Z,12.30
2023-02-26T16:15:31.131Z,12.60
2023-02-26T16:18:38.061Z,12.20
2023-02-26T16:21:45.050Z,12.20
2023-02-26T16:24:58.969Z,13.50
2023-02-26T16:28:08.278Z,10.40
2023-02-26T16:31:21.146Z,13.30
2023-02-26T16:34:41.618Z,11.80
2023-02-26T16:37:50.165Z,12.10
2023-02-26T16:41:03.906Z,12.30
2023-02-26T16:44:40.809Z,13.30
2023-02-26T16:47:48.693Z,10.60
2023-02-26T16:51:01.324Z,11.30
2023-02-26T16:54:10.622Z,10.80
2023-02-26T16:57:21.683Z,11.10
2023-02-26T17:00:31.294Z,12.70
2023-02-26T17:03:40.730Z,12.60
2023-02-26T17:06:48.280Z,14.10
2023-02-26T17:09:58.531Z,12.00
2023-02-26T17:13:16.510Z,13.80
2023-02-26T17:16:23.358Z,13.50
2023-02-26T17:19:29.745Z,11.40
2023-02-26T17:22:36.154Z,11.30
2023-02-26T17:25:45.478Z,14.40
2023-02-26T17:28:51.999Z,11.00
2023-02-26T17:31:58.365Z,11.50
2023-02-26T17:38:13.405Z,13.60
2023-02-26T17:41:20.974Z,13.30
2023-02-26T17:44:27.225Z,15.30
2023-02-26T17:47:40.043Z,14.50
2023-02-26T17:50:54.480Z,13.30
2023-02-26T17:54:04.688Z,14.10
2023-02-26T17:57:22.196Z,13.20
2023-02-26T18:00:31.639Z,18.90
2023-02-26T18:03:42.123Z,14.30
2023-02-26T18:06:52.624Z,16.80
2023-02-26T18:10:04.663Z,14.80
2023-02-26T18:13:24.188Z,16.60
2023-02-26T18:16:37.302Z,19.20
2023-02-26T18:19:53.423Z,15.50
2023-02-26T18:23:04.983Z,25.60
2023-02-26T18:26:18.901Z,20.00
2023-02-26T18:29:27.401Z,19.20
2023-02-26T18:32:36.818Z,17.10
2023-02-26T18:35:46.051Z,20.40
2023-02-26T18:38:52.260Z,15.60
2023-02-26T18:41:58.500Z,13.20
2023-02-26T18:45:05.149Z,19.30
2023-02-26T18:48:13.220Z,17.70
2023-02-26T18:51:19.560Z,25.80
2023-02-26T18:57:30.774Z,14.90
2023-02-26T19:00:37.103Z,17.00
2023-02-26T19:06:48.005Z,21.00
2023-02-26T19:12:59.153Z,17.90
2023-02-26T19:16:05.738Z,21.20
2023-02-26T19:19:12.954Z,17.20
2023-02-26T19:22:19.310Z,16.80
2023-02-26T19:28:33.614Z,16.70
2023-02-26T19:31:40.454Z,16.80
2023-02-26T19:34:46.952Z,17.00
2023-02-26T19:40:57.927Z,18.40
2023-02-26T19:44:04.235Z,15.60
2023-02-26T19:50:16.879Z,17.40
2023-02-26T19:53:23.215Z,18.20
2023-02-26T19:59:34.202Z,19.60
2023-02-26T20:02:40.751Z,19.60
2023-02-26T20:05:48.033Z,19.90
2023-02-26T20:08:54.462Z,21.90
2023-02-26T20:12:01.372Z,19.60
2023-02-26T20:15:09.499Z,19.60
2023-02-26T20:18:16.052Z,19.80
2023-02-26T20:21:23.497Z,23.00
2023-02-26T20:24:30.911Z,21.50
2023-02-26T20:27:37.722Z,19.30
2023-02-26T20:30:43.983Z,20.00
2023-02-26T20:33:50.143Z,16.00
2023-02-26T20:36:56.846Z,22.70
2023-02-26T20:40:05.354Z,18.00
2023-02-26T20:43:12.438Z,20.20
2023-02-26T20:46:18.837Z,21.30
2023-02-26T20:49:25.709Z,19.60
2023-02-26T20:52:32.013Z,25.60
2023-02-26T20:58:42.754Z,21.30
2023-02-26T21:01:51.389Z,24.60
2023-02-26T21:04:57.590Z,19.90
2023-02-26T21:08:04.317Z,19.70
2023-02-26T21:11:10.598Z,18.60
2023-02-26T21:14:16.839Z,19.20
2023-02-26T21:20:28.008Z,20.30
2023-02-26T21:23:34.176Z,21.50
2023-02-26T21:26:40.461Z,20.20
2023-02-26T21:32:51.929Z,19.90
2023-02-26T21:35:58.471Z,18.80
2023-02-26T21:39:05.741Z,19.10
2023-02-26T21:42:14.140Z,20.10
2023-02-26T21:45:20.591Z,23.30
2023-02-26T21:48:26.776Z,21.10
2023-02-26T21:51:32.977Z,23.80
2023-02-26T21:57:44.330Z,21.20
2023-02-26T22:00:50.709Z,20.40
2023-02-26T22:07:01.549Z,22.40
2023-02-26T22:10:10.041Z,24.90
2023-02-26T22:13:16.313Z,29.00
2023-02-26T22:16:22.972Z,19.70
2023-02-26T22:19:29.252Z,20.40
2023-02-26T22:22:35.460Z,20.00
2023-02-26T22:25:41.680Z,19.90
2023-02-26T22:28:47.969Z,20.60
2023-02-26T22:35:00.563Z,19.00
2023-02-26T22:41:11.392Z,20.80
2023-02-26T22:47:22.022Z,22.40
2023-02-26T22:50:28.168Z,21.00
2023-02-26T22:53:34.379Z,21.10
2023-02-26T22:56:40.552Z,19.40
2023-02-26T22:59:46.681Z,22.10
2023-02-26T23:02:53.508Z,21.60
2023-02-26T23:06:00.198Z,19.60
2023-02-26T23:09:07.080Z,21.30
2023-02-26T23:12:14.107Z,20.60
2023-02-26T23:15:20.416Z,21.40
2023-02-26T23:21:31.991Z,26.60
2023-02-26T23:24:38.273Z,18.30
2023-02-26T23:30:49.612Z,21.20
2023-02-26T23:37:00.453Z,19.70
2023-02-26T23:40:08.144Z,26.30
2023-02-26T23:43:14.286Z,23.50
2023-02-26T23:46:20.563Z,20.30
2023-02-26T23:52:31.417Z,22.20
2023-02-26T23:58:42.196Z,24.70
